createdAt,value
2022-09-21T00:01:20.745Z,4.00
2022-09-21T00:03:48.265Z,4.45
2022-09-21T00:06:20.029Z,3.90
2022-09-21T00:08:47.595Z,4.28
2022-09-21T00:11:16.316Z,4.43
2022-09-21T00:13:44.327Z,3.90
2022-09-21T00:16:11.411Z,3.75
2022-09-21T00:18:38.716Z,3.58
2022-09-21T00:21:11.084Z,3.90
2022-09-21T00:23:38.835Z,3.97
2022-09-21T00:26:06.642Z,3.33
2022-09-21T00:28:33.587Z,4.28
2022-09-21T00:31:10.079Z,3.80
2022-09-21T00:33:36.968Z,3.70
2022-09-21T00:36:09.807Z,4.13
2022-09-21T00:38:37.512Z,3.75
2022-09-21T00:41:06.525Z,4.07
2022-09-21T00:43:40.799Z,4.22
2022-09-21T00:46:29.676Z,3.65
2022-09-21T00:48:58.009Z,3.88
2022-09-21T00:51:25.883Z,3.63
2022-09-21T00:53:57.197Z,3.28
2022-09-21T00:56:24.484Z,3.70
2022-09-21T00:58:54.627Z,3.80
2022-09-21T01:01:22.340Z,3.45
2022-09-21T01:03:52.247Z,3.75
2022-09-21T01:06:21.209Z,3.55
2022-09-21T01:08:54.133Z,3.50
2022-09-21T01:11:32.306Z,3.50
2022-09-21T01:14:14.082Z,3.13
2022-09-21T01:17:02.609Z,3.80
2022-09-21T01:19:47.564Z,3.42
2022-09-21T01:22:42.935Z,2.97
2022-09-21T01:25:33.056Z,3.60
2022-09-21T01:28:27.099Z,3.05
2022-09-21T01:30:56.062Z,2.92
2022-09-21T01:33:49.357Z,3.15
2022-09-21T01:36:22.215Z,2.97
2022-09-21T01:38:53.821Z,2.72
2022-09-21T01:41:26.118Z,3.00
2022-09-21T01:43:57.592Z,3.25
2022-09-21T01:46:30.638Z,2.90
2022-09-21T01:49:04.806Z,2.65
2022-09-21T01:51:33.876Z,3.20
2022-09-21T01:54:09.491Z,3.38
2022-09-21T01:56:41.737Z,2.90
2022-09-21T01:59:16.322Z,3.00
2022-09-21T02:01:51.999Z,2.78
2022-09-21T02:04:19.074Z,3.10
2022-09-21T02:06:47.774Z,2.97
2022-09-21T02:09:15.093Z,3.13
2022-09-21T02:11:44.955Z,3.00
2022-09-21T02:14:22.528Z,2.47
2022-09-21T02:17:18.401Z,2.70
2022-09-21T02:19:57.705Z,2.67
2022-09-21T02:22:51.458Z,3.35
2022-09-21T02:26:10.574Z,2.42
2022-09-21T02:28:53.110Z,2.72
2022-09-21T02:31:43.317Z,2.85
2022-09-21T02:34:26.314Z,2.85
2022-09-21T02:37:26.831Z,3.00
2022-09-21T02:40:11.874Z,2.58
2022-09-21T02:42:43.046Z,2.80
2022-09-21T02:45:30.350Z,2.75
2022-09-21T02:48:20.867Z,3.03
2022-09-21T02:50:56.626Z,2.22
2022-09-21T02:53:30.843Z,3.20
2022-09-21T02:56:02.999Z,3.17
2022-09-21T02:58:31.457Z,3.00
2022-09-21T03:00:59.488Z,2.97
2022-09-21T03:03:26.342Z,2.65
2022-09-21T03:05:55.285Z,2.88
2022-09-21T03:08:22.530Z,2.88
2022-09-21T03:10:50.810Z,2.92
2022-09-21T03:13:18.949Z,2.65
2022-09-21T03:15:46.672Z,2.67
2022-09-21T03:18:13.867Z,2.88
2022-09-21T03:20:47.740Z,2.80
2022-09-21T03:23:14.992Z,2.92
2022-09-21T03:25:45.918Z,3.08
2022-09-21T03:28:14.003Z,3.00
2022-09-21T03:30:41.111Z,2.78
2022-09-21T03:33:08.331Z,3.33
2022-09-21T03:35:35.151Z,2.88
2022-09-21T03:38:02.649Z,2.92
2022-09-21T03:40:29.606Z,3.13
2022-09-21T03:42:56.482Z,3.45
2022-09-21T03:45:23.345Z,3.20
2022-09-21T03:47:50.318Z,3.20
2022-09-21T03:50:17.358Z,3.00
2022-09-21T03:52:44.219Z,3.13
2022-09-21T03:55:11.071Z,3.05
2022-09-21T03:57:38.865Z,3.28
2022-09-21T04:00:09.184Z,3.38
2022-09-21T04:02:37.514Z,2.88
2022-09-21T04:05:04.697Z,2.85
2022-09-21T04:07:35.119Z,3.35
2022-09-21T04:10:06.873Z,3.20
2022-09-21T04:12:34.697Z,2.78
2022-09-21T04:15:02.135Z,2.85
2022-09-21T04:17:29.442Z,3.08
2022-09-21T04:19:56.742Z,3.03
2022-09-21T04:22:24.924Z,3.33
2022-09-21T04:24:52.097Z,3.17
2022-09-21T04:27:19.164Z,2.85
2022-09-21T04:29:46.150Z,3.50
2022-09-21T04:32:13.123Z,2.90
2022-09-21T04:34:40.070Z,2.75
2022-09-21T04:37:10.779Z,3.10
2022-09-21T04:39:39.141Z,3.00
2022-09-21T04:42:07.143Z,3.25
2022-09-21T04:44:34.019Z,3.38
2022-09-21T04:47:00.819Z,3.13
2022-09-21T04:49:27.993Z,2.90
2022-09-21T04:51:54.815Z,3.28
2022-09-21T04:54:21.684Z,2.92
2022-09-21T04:56:48.543Z,3.30
2022-09-21T04:59:15.556Z,3.40
2022-09-21T05:01:42.449Z,3.58
2022-09-21T05:04:09.263Z,3.78
2022-09-21T05:06:36.167Z,3.60
2022-09-21T05:09:21.503Z,3.10
2022-09-21T05:11:48.646Z,3.30
2022-09-21T05:14:15.562Z,3.47
2022-09-21T05:16:42.399Z,3.50
2022-09-21T05:19:09.270Z,3.63
2022-09-21T05:21:37.165Z,3.85
2022-09-21T05:24:04.175Z,3.50
2022-09-21T05:26:31.220Z,3.00
2022-09-21T05:28:58.547Z,3.80
2022-09-21T05:31:40.500Z,3.50
2022-09-21T05:34:16.558Z,4.22
2022-09-21T05:37:15.633Z,3.72
2022-09-21T05:39:42.968Z,3.97
2022-09-21T05:42:10.957Z,3.45
2022-09-21T05:44:38.112Z,3.80
2022-09-21T05:47:24.063Z,3.35
2022-09-21T05:50:06.059Z,3.58
2022-09-21T05:53:01.667Z,3.60
2022-09-21T05:55:37.264Z,3.80
2022-09-21T05:58:15.287Z,4.18
2022-09-21T06:01:20.861Z,3.70
2022-09-21T06:03:49.937Z,3.72
2022-09-21T06:06:19.188Z,3.78
2022-09-21T06:08:46.163Z,4.75
2022-09-21T06:11:14.007Z,4.43
2022-09-21T06:13:41.474Z,4.05
2022-09-21T06:16:08.528Z,3.88
2022-09-21T06:18:39.927Z,4.35
2022-09-21T06:21:08.233Z,4.03
2022-09-21T06:23:35.294Z,3.80
2022-09-21T06:26:04.564Z,4.13
2022-09-21T06:28:31.645Z,4.10
2022-09-21T06:30:58.943Z,4.40
2022-09-21T06:33:26.321Z,4.10
2022-09-21T06:35:55.762Z,4.32
2022-09-21T06:38:23.934Z,4.28
2022-09-21T06:40:51.643Z,4.25
2022-09-21T06:43:18.911Z,4.45
2022-09-21T06:45:56.962Z,4.10
2022-09-21T06:48:24.642Z,3.90
2022-09-21T06:50:51.727Z,4.38
2022-09-21T06:53:18.744Z,4.82
2022-09-21T06:55:45.547Z,4.53
2022-09-21T06:58:12.508Z,4.57
2022-09-21T07:00:39.383Z,4.35
2022-09-21T07:03:06.173Z,4.45
2022-09-21T07:05:34.299Z,4.50
2022-09-21T07:08:01.418Z,4.63
2022-09-21T07:10:28.705Z,4.20
2022-09-21T07:12:55.866Z,4.70
2022-09-21T07:15:23.682Z,4.47
2022-09-21T07:17:52.426Z,4.28
2022-09-21T07:20:19.860Z,4.50
2022-09-21T07:22:46.918Z,4.38
2022-09-21T07:25:14.397Z,4.25
2022-09-21T07:27:41.604Z,4.53
2022-09-21T07:30:10.234Z,4.90
2022-09-21T07:32:37.038Z,4.15
2022-09-21T07:35:04.328Z,4.13
2022-09-21T07:37:32.179Z,4.97
2022-09-21T07:39:59.096Z,4.70
2022-09-21T07:42:27.918Z,4.60
2022-09-21T07:45:03.301Z,3.88
2022-09-21T07:47:31.442Z,4.88
2022-09-21T07:49:58.410Z,4.35
2022-09-21T07:52:25.250Z,4.10
2022-09-21T07:54:52.056Z,4.43
2022-09-21T07:57:37.760Z,4.93
2022-09-21T08:00:05.336Z,4.18
2022-09-21T08:02:40.824Z,5.63
2022-09-21T08:05:09.646Z,4.10
2022-09-21T08:07:36.491Z,5.30
2022-09-21T08:10:03.607Z,4.95
2022-09-21T08:12:30.623Z,4.85
2022-09-21T08:14:57.556Z,5.80
2022-09-21T08:17:24.795Z,4.13
2022-09-21T08:19:51.725Z,4.82
2022-09-21T08:22:18.927Z,4.78
2022-09-21T08:24:46.526Z,5.03
2022-09-21T08:27:13.401Z,5.00
2022-09-21T08:29:40.484Z,4.10
2022-09-21T08:32:07.588Z,3.83
2022-09-21T08:34:34.499Z,3.25
2022-09-21T08:37:01.369Z,4.05
2022-09-21T08:39:28.303Z,4.32
2022-09-21T08:42:07.915Z,3.63
2022-09-21T08:44:48.182Z,3.25
2022-09-21T08:47:21.920Z,4.03
2022-09-21T08:49:56.482Z,3.25
2022-09-21T08:52:25.200Z,3.63
2022-09-21T08:54:57.810Z,3.47
2022-09-21T08:57:31.464Z,2.78
2022-09-21T09:00:00.292Z,3.15
2022-09-21T09:02:54.165Z,3.30
2022-09-21T09:05:39.142Z,2.85
2022-09-21T09:08:46.991Z,2.80
2022-09-21T09:11:32.291Z,2.40
2022-09-21T09:14:20.882Z,2.60
2022-09-21T09:17:10.102Z,2.28
2022-09-21T09:19:47.687Z,2.25
2022-09-21T09:22:23.635Z,2.10
2022-09-21T09:24:55.188Z,2.03
2022-09-21T09:27:30.742Z,2.80
2022-09-21T09:30:24.783Z,2.08
2022-09-21T09:33:05.500Z,2.47
2022-09-21T09:35:36.724Z,2.33
2022-09-21T09:38:19.070Z,2.00
2022-09-21T09:41:07.614Z,1.90
2022-09-21T09:44:00.679Z,2.13
2022-09-21T09:46:36.821Z,2.25
2022-09-21T09:49:12.237Z,1.90
2022-09-21T09:51:40.952Z,2.05
2022-09-21T09:54:14.994Z,2.10
2022-09-21T09:56:42.437Z,2.17
2022-09-21T09:59:44.102Z,2.17
2022-09-21T10:02:24.746Z,1.55
2022-09-21T10:05:09.027Z,1.70
2022-09-21T10:07:41.597Z,1.92
2022-09-21T10:10:29.652Z,1.58
2022-09-21T10:13:09.822Z,1.52
2022-09-21T10:15:43.289Z,1.38
2022-09-21T10:18:25.443Z,1.80
2022-09-21T10:21:04.889Z,1.80
2022-09-21T10:23:32.661Z,1.73
2022-09-21T10:26:08.857Z,1.80
2022-09-21T10:28:36.326Z,1.92
2022-09-21T10:31:18.991Z,1.75
2022-09-21T10:34:06.038Z,1.30
2022-09-21T10:36:36.664Z,1.60
2022-09-21T10:39:24.214Z,1.33
2022-09-21T10:41:54.215Z,1.50
2022-09-21T10:44:23.845Z,1.20
2022-09-21T10:46:51.922Z,1.40
2022-09-21T10:49:28.052Z,1.60
2022-09-21T10:51:58.167Z,1.25
2022-09-21T10:54:32.641Z,1.30
2022-09-21T10:57:04.193Z,1.52
2022-09-21T10:59:33.762Z,1.45
2022-09-21T11:02:02.385Z,1.30
2022-09-21T11:04:53.765Z,1.50
2022-09-21T11:07:39.632Z,1.08
2022-09-21T11:10:47.433Z,1.10
2022-09-21T11:13:35.364Z,1.15
2022-09-21T11:16:14.232Z,1.23
2022-09-21T11:19:27.149Z,1.17
2022-09-21T11:22:18.469Z,1.08
2022-09-21T11:24:52.090Z,1.42
2022-09-21T11:27:22.828Z,1.20
2022-09-21T11:30:11.515Z,1.20
2022-09-21T11:32:38.921Z,1.27
2022-09-21T11:35:08.877Z,1.15
2022-09-21T11:37:35.858Z,1.23
2022-09-21T11:40:05.886Z,1.40
2022-09-21T11:42:51.491Z,1.00
2022-09-21T11:45:58.868Z,1.02
2022-09-21T11:48:37.314Z,1.27
2022-09-21T11:51:38.375Z,1.33
2022-09-21T11:54:26.110Z,1.33
2022-09-21T11:56:55.904Z,1.67
2022-09-21T11:59:47.893Z,1.13
2022-09-21T12:02:22.377Z,1.80
2022-09-21T12:05:29.646Z,2.10
2022-09-21T12:08:19.536Z,1.83
2022-09-21T12:11:14.426Z,2.05
2022-09-21T12:14:08.311Z,1.30
2022-09-21T12:16:39.225Z,1.20
2022-09-21T12:19:09.798Z,1.75
2022-09-21T12:21:49.843Z,1.45
2022-09-21T12:24:27.521Z,1.60
2022-09-21T12:27:03.119Z,1.20
2022-09-21T12:29:38.141Z,1.30
2022-09-21T12:32:19.801Z,1.33
2022-09-21T12:34:52.967Z,1.10
2022-09-21T12:37:23.973Z,0.90
2022-09-21T12:40:06.054Z,1.08
2022-09-21T12:42:57.098Z,1.17
2022-09-21T12:45:35.128Z,1.10
2022-09-21T12:48:42.283Z,1.20
2022-09-21T12:51:24.974Z,0.85
2022-09-21T12:53:59.014Z,1.08
2022-09-21T12:56:37.515Z,1.20
2022-09-21T12:59:22.900Z,0.90
2022-09-21T13:02:05.893Z,0.98
2022-09-21T13:05:07.219Z,1.20
2022-09-21T13:08:04.460Z,1.00
2022-09-21T13:10:39.461Z,1.10
2022-09-21T13:13:15.010Z,1.08
2022-09-21T13:15:48.471Z,1.02
2022-09-21T13:18:36.253Z,1.08
2022-09-21T13:21:18.436Z,0.90
2022-09-21T13:23:55.129Z,0.93
2022-09-21T13:26:42.618Z,0.93
2022-09-21T13:29:21.479Z,0.82
2022-09-21T13:32:14.078Z,1.70
2022-09-21T13:34:42.767Z,1.17
2022-09-21T13:37:14.669Z,1.20
2022-09-21T13:39:45.545Z,0.90
2022-09-21T13:42:30.807Z,0.90
2022-09-21T13:45:22.975Z,1.25
2022-09-21T13:47:55.320Z,1.15
2022-09-21T13:50:26.563Z,1.23
2022-09-21T13:53:00.095Z,1.10
2022-09-21T13:55:50.554Z,0.88
2022-09-21T13:58:25.795Z,1.00
2022-09-21T14:00:55.288Z,1.08
2022-09-21T14:03:37.333Z,0.85
2022-09-21T14:06:20.579Z,1.30
2022-09-21T14:08:52.652Z,1.45
2022-09-21T14:11:41.358Z,1.20
2022-09-21T14:14:12.172Z,0.90
2022-09-21T14:16:40.033Z,1.08
2022-09-21T14:19:30.583Z,0.82
2022-09-21T14:22:06.434Z,1.00
2022-09-21T14:25:11.420Z,0.95
2022-09-21T14:27:45.906Z,0.90
2022-09-21T14:30:22.205Z,1.10
2022-09-21T14:32:59.936Z,1.15
2022-09-21T14:35:33.870Z,0.88
2022-09-21T14:38:05.575Z,1.10
2022-09-21T14:40:39.274Z,1.08
2022-09-21T14:43:14.911Z,1.15
2022-09-21T14:45:59.146Z,0.88
2022-09-21T14:48:50.274Z,0.80
2022-09-21T14:51:23.297Z,0.85
2022-09-21T14:54:14.412Z,0.90
2022-09-21T14:56:41.263Z,1.17
2022-09-21T14:59:26.552Z,1.30
2022-09-21T15:02:16.357Z,0.80
2022-09-21T15:05:04.888Z,1.15
2022-09-21T15:08:16.417Z,1.13
2022-09-21T15:11:15.984Z,0.82
2022-09-21T15:13:57.018Z,0.90
2022-09-21T15:16:47.005Z,0.82
2022-09-21T15:19:23.811Z,0.95
2022-09-21T15:21:56.196Z,0.82
2022-09-21T15:24:27.451Z,1.10
2022-09-21T15:27:02.780Z,1.40
2022-09-21T15:29:31.935Z,0.90
2022-09-21T15:32:00.773Z,0.90
2022-09-21T15:34:28.492Z,1.00
2022-09-21T15:37:06.783Z,0.95
2022-09-21T15:39:33.879Z,0.90
2022-09-21T15:42:09.471Z,1.13
2022-09-21T15:44:38.186Z,1.00
2022-09-21T15:47:08.560Z,0.90
2022-09-21T15:49:36.284Z,0.90
2022-09-21T15:52:12.909Z,1.05
2022-09-21T15:54:49.059Z,1.00
2022-09-21T15:57:40.447Z,1.23
2022-09-21T16:00:20.022Z,0.90
2022-09-21T16:03:19.165Z,1.10
2022-09-21T16:05:51.677Z,0.98
2022-09-21T16:08:18.465Z,0.90
2022-09-21T16:10:45.751Z,0.75
2022-09-21T16:13:36.933Z,1.08
2022-09-21T16:16:12.732Z,1.50
2022-09-21T16:18:50.959Z,1.10
2022-09-21T16:21:28.102Z,0.93
2022-09-21T16:24:09.742Z,1.17
2022-09-21T16:26:39.432Z,1.05
2022-09-21T16:29:26.380Z,0.90
2022-09-21T16:32:18.790Z,1.40
2022-09-21T16:34:48.330Z,1.40
2022-09-21T16:37:28.097Z,1.20
2022-09-21T16:39:57.203Z,1.10
2022-09-21T16:42:31.245Z,1.30
2022-09-21T16:44:58.496Z,1.30
2022-09-21T16:47:28.846Z,1.30
2022-09-21T16:50:00.341Z,1.42
2022-09-21T16:52:29.261Z,0.85
2022-09-21T16:54:58.077Z,1.08
2022-09-21T16:57:26.031Z,1.23
2022-09-21T16:59:52.916Z,1.30
2022-09-21T17:02:20.070Z,1.20
2022-09-21T17:04:48.019Z,1.40
2022-09-21T17:07:17.010Z,1.80
2022-09-21T17:09:47.587Z,1.23
2022-09-21T17:12:16.765Z,1.40
2022-09-21T17:14:47.132Z,1.13
2022-09-21T17:17:23.408Z,1.15
2022-09-21T17:19:52.684Z,1.05
2022-09-21T17:22:20.443Z,1.13
2022-09-21T17:24:51.833Z,1.40
2022-09-21T17:27:29.205Z,1.38
2022-09-21T17:29:57.060Z,1.08
2022-09-21T17:32:24.861Z,1.40
2022-09-21T17:35:09.988Z,1.30
2022-09-21T17:37:38.142Z,1.30
2022-09-21T17:40:10.408Z,1.77
2022-09-21T17:42:48.418Z,1.83
2022-09-21T17:45:27.436Z,1.75
2022-09-21T17:47:54.863Z,1.73
2022-09-21T17:50:27.267Z,1.70
2022-09-21T17:53:14.163Z,1.88
2022-09-21T17:55:54.546Z,2.08
2022-09-21T17:58:48.891Z,2.10
2022-09-21T18:01:39.672Z,2.92
2022-09-21T18:04:08.366Z,2.58
2022-09-21T18:06:35.476Z,2.88
2022-09-21T18:09:03.424Z,2.50
2022-09-21T18:12:07.120Z,3.60
2022-09-21T18:14:58.561Z,3.17
2022-09-21T18:17:32.863Z,2.58
2022-09-21T18:20:18.293Z,3.03
2022-09-21T18:22:58.354Z,3.85
2022-09-21T18:25:33.277Z,3.38
2022-09-21T18:28:12.213Z,3.53
2022-09-21T18:30:44.797Z,3.58
2022-09-21T18:33:24.332Z,3.47
2022-09-21T18:35:59.208Z,2.83
2022-09-21T18:38:41.537Z,3.10
2022-09-21T18:41:21.489Z,2.97
2022-09-21T18:44:11.135Z,3.30
2022-09-21T18:47:10.039Z,3.55
2022-09-21T18:50:02.784Z,2.95
2022-09-21T18:52:50.063Z,2.97
2022-09-21T18:55:27.053Z,3.85
2022-09-21T18:57:56.185Z,3.25
2022-09-21T19:00:25.260Z,3.83
2022-09-21T19:03:12.598Z,4.28
2022-09-21T19:05:51.811Z,3.40
2022-09-21T19:08:34.109Z,3.58
2022-09-21T19:11:19.556Z,3.40
2022-09-21T19:14:05.218Z,4.05
2022-09-21T19:16:35.258Z,4.28
2022-09-21T19:19:38.421Z,4.10
2022-09-21T19:22:43.230Z,3.90
2022-09-21T19:25:19.803Z,3.97
2022-09-21T19:28:06.900Z,3.70
2022-09-21T19:30:34.124Z,4.10
2022-09-21T19:33:45.906Z,3.92
2022-09-21T19:36:14.194Z,4.13
2022-09-21T19:38:41.645Z,4.53
2022-09-21T19:41:32.285Z,4.30
2022-09-21T19:44:16.826Z,4.38
2022-09-21T19:46:48.171Z,4.10
2022-09-21T19:49:19.984Z,4.30
2022-09-21T19:51:49.389Z,4.80
2022-09-21T19:54:38.923Z,4.28
2022-09-21T19:59:49.589Z,4.00
2022-09-21T20:02:40.044Z,5.00
2022-09-21T20:05:15.040Z,5.00
2022-09-21T20:08:09.186Z,4.38
2022-09-21T20:10:42.118Z,4.50
2022-09-21T20:13:21.833Z,4.32
2022-09-21T20:16:15.857Z,4.28
2022-09-21T20:18:54.769Z,4.07
2022-09-21T20:21:24.108Z,4.80
2022-09-21T20:23:58.426Z,4.28
2022-09-21T20:26:27.039Z,4.32
2022-09-21T20:28:54.766Z,4.18
2022-09-21T20:31:23.262Z,4.30
2022-09-21T20:33:50.379Z,4.53
2022-09-21T20:36:17.390Z,4.85
2022-09-21T20:38:44.523Z,4.60
2022-09-21T20:41:13.129Z,4.40
2022-09-21T20:43:39.973Z,4.22
2022-09-21T20:46:09.509Z,4.28
2022-09-21T20:48:37.755Z,4.55
2022-09-21T20:51:06.172Z,4.45
2022-09-21T20:53:34.400Z,4.25
2022-09-21T20:56:02.023Z,4.43
2022-09-21T20:58:33.434Z,3.85
2022-09-21T21:01:05.461Z,4.22
2022-09-21T21:03:32.648Z,4.75
2022-09-21T21:06:09.770Z,3.95
2022-09-21T21:08:36.679Z,4.75
2022-09-21T21:11:03.497Z,4.80
2022-09-21T21:13:31.022Z,3.92
2022-09-21T21:15:58.727Z,4.20
2022-09-21T21:18:26.591Z,4.40
2022-09-21T21:20:53.571Z,4.20
2022-09-21T21:23:20.424Z,3.75
2022-09-21T21:25:48.085Z,4.10
2022-09-21T21:28:15.024Z,4.40
2022-09-21T21:30:41.867Z,4.03
2022-09-21T21:33:08.812Z,4.20
2022-09-21T21:35:37.475Z,3.90
2022-09-21T21:38:04.371Z,4.05
2022-09-21T21:40:31.273Z,3.83
2022-09-21T21:42:58.204Z,4.60
2022-09-21T21:45:25.410Z,3.72
2022-09-21T21:47:54.155Z,4.18
2022-09-21T21:50:21.079Z,4.25
2022-09-21T21:52:47.942Z,3.85
2022-09-21T21:55:14.976Z,3.53
2022-09-21T21:57:41.852Z,3.30
2022-09-21T22:00:09.559Z,4.00
2022-09-21T22:02:36.872Z,3.85
2022-09-21T22:05:03.970Z,3.13
2022-09-21T22:07:30.897Z,3.45
2022-09-21T22:09:57.738Z,3.63
2022-09-21T22:12:26.223Z,3.13
2022-09-21T22:14:53.142Z,3.17
2022-09-21T22:17:19.962Z,3.03
2022-09-21T22:19:47.117Z,2.92
2022-09-21T22:22:13.908Z,2.83
2022-09-21T22:24:40.714Z,3.20
2022-09-21T22:27:07.538Z,3.10
2022-09-21T22:29:35.423Z,3.20
2022-09-21T22:32:02.494Z,3.20
2022-09-21T22:34:29.418Z,2.80
2022-09-21T22:36:58.563Z,2.72
2022-09-21T22:39:25.674Z,2.67
2022-09-21T22:41:52.600Z,3.20
2022-09-21T22:44:19.402Z,2.67
2022-09-21T22:46:46.260Z,2.67
2022-09-21T22:49:13.078Z,2.58
2022-09-21T22:51:39.904Z,2.65
2022-09-21T22:54:07.139Z,2.65
2022-09-21T22:56:34.338Z,2.78
2022-09-21T22:59:03.656Z,2.58
2022-09-21T23:01:33.436Z,2.75
2022-09-21T23:04:08.897Z,2.20
2022-09-21T23:06:38.747Z,2.38
2022-09-21T23:09:08.341Z,2.47
2022-09-21T23:11:38.177Z,2.40
2022-09-21T23:14:05.560Z,2.38
2022-09-21T23:16:32.616Z,2.20
2022-09-21T23:19:00.217Z,2.08
2022-09-21T23:21:29.543Z,2.40
2022-09-21T23:24:00.025Z,2.67
2022-09-21T23:26:28.778Z,2.30
2022-09-21T23:28:58.189Z,2.05
2022-09-21T23:31:28.601Z,2.20
2022-09-21T23:33:58.409Z,2.28
2022-09-21T23:36:27.586Z,2.30
2022-09-21T23:38:55.162Z,2.20
2022-09-21T23:41:30.098Z,1.92
2022-09-21T23:43:57.950Z,1.92
2022-09-21T23:46:37.504Z,2.03
2022-09-21T23:49:04.894Z,2.28
2022-09-21T23:51:32.564Z,2.15
2022-09-21T23:53:59.669Z,2.35
2022-09-21T23:56:28.229Z,1.92
2022-09-21T23:58:55.359Z,1.90
